H9559 / 9N-ALW 7700 Squawk Report (14th of November, 2019)

Aircraft A320 Reg No. 9N-ALW Age 2 years old
Model A320 Jet engines 2 First flight 09-03-17
Registered 30-03-17 Rollout 03-17 Delivered 30-03-17
Construction No. 7604 Line No. N/A Series 214(SL)
ADSHEX 70AA79 Airline name Himalaya Airlines Owner N/A
Airfield based Kathmandu-Tribhuvan International~ ~9N First tracked 2017-07-13 03:56:00
Time Lat Lon Altitude Heading Speed Vertical Rate
2019-11-14 21:16:09 GMT 26.745331 49.822788 3,900 340 209 64
2019-11-14 21:15:55 GMT 26.733135 49.827911 3,900 340 208 -64
2019-11-14 21:15:00 GMT 26.683502 49.848545 4,375 340 212 -1024
2019-11-14 21:14:56 GMT 26.679787 49.850040 4,450 340 213 -960
2019-11-14 21:14:41 GMT 26.666107 49.855751 4,700 340 216 -1088
2019-11-14 21:14:36 GMT 26.660706 49.858028 4,775 340 216 -960
2019-11-14 21:14:26 GMT 26.650599 49.862244 4,900 340 214 -128
2019-11-14 21:14:14 GMT 26.640518 49.866478 4,900 340 215 0
2019-11-14 21:14:05 GMT 26.631271 49.870415 4,900 340 216 0
2019-11-14 21:13:54 GMT 26.621317 49.874603 4,900 340 216 0
2019-11-14 21:13:44 GMT 26.611954 49.878605 4,900 340 216 0
2019-11-14 21:13:31 GMT 26.599623 49.883900 4,900 340 215 0
2019-11-14 21:13:22 GMT 26.592268 49.887016 4,900 340 215 0
2019-11-14 21:13:12 GMT 26.582016 49.891403 4,900 340 215 0
2019-11-14 21:13:02 GMT 26.572855 49.895306 4,900 340 215 0
2019-11-14 21:12:51 GMT 26.563032 49.899479 4,900 340 215 0
2019-11-14 21:12:41 GMT 26.553680 49.903477 4,900 340 215 0
2019-11-14 21:12:30 GMT 26.543434 49.907825 4,900 340 214 -64
2019-11-14 21:12:21 GMT 26.534317 49.911613 4,925 340 213 -128
2019-11-14 21:12:10 GMT 26.524521 49.915604 4,975 340 216 -640
2019-11-14 21:12:00 GMT 26.514479 49.919659 5,100 341 219 -640
2019-11-14 21:11:49 GMT 26.504425 49.923637 5,200 341 225 -512
2019-11-14 21:11:39 GMT 26.494274 49.927685 5,275 341 231 -448
2019-11-14 21:11:29 GMT 26.483688 49.932034 5,375 340 237 -576
2019-11-14 21:11:18 GMT 26.472908 49.936455 5,450 340 244 -576
2019-11-14 21:11:08 GMT 26.461578 49.941204 5,550 339 250 -448
2019-11-14 21:10:56 GMT 26.449863 49.946594 5,625 333 258 -448
2019-11-14 21:10:46 GMT 26.439651 49.953693 5,750 316 263 -768
2019-11-14 21:10:37 GMT 26.431549 49.964680 5,900 298 266 -1088
2019-11-14 21:10:29 GMT 26.427845 49.973534 6,025 292 269 -960
2019-11-14 21:10:25 GMT 26.426355 49.977810 6,100 292 270 -960
2019-11-14 21:10:19 GMT 26.423355 49.986237 6,200 292 271 -960
2019-11-14 21:10:16 GMT 26.421606 49.991226 6,250 292 274 -960
2019-11-14 21:10:11 GMT 26.419556 49.997017 6,325 292 276 -1024
2019-11-14 21:10:05 GMT 26.416719 50.005013 6,425 292 278 -1024
2019-11-14 21:10:00 GMT 26.414383 50.011528 6,525 292 280 -960
2019-11-14 21:09:54 GMT 26.411692 50.019062 6,600 292 280 -960
2019-11-14 21:09:50 GMT 26.409668 50.024689 6,675 292 281 -960
2019-11-14 21:09:45 GMT 26.406738 50.032722 6,775 292 282 -1024
2019-11-14 21:09:38 GMT 26.403730 50.040981 6,875 292 283 -1024
2019-11-14 21:09:33 GMT 26.401449 50.047321 6,950 292 284 -1024
2019-11-14 21:09:29 GMT 26.399460 50.052776 7,025 292 284 -1024
2019-11-14 21:09:24 GMT 26.396376 50.061371 7,125 292 285 -960
2019-11-14 21:09:19 GMT 26.394140 50.067497 7,200 292 285 -960
2019-11-14 21:09:13 GMT 26.391487 50.074997 7,275 292 284 -960
2019-11-14 21:09:06 GMT 26.387924 50.084961 7,400 292 284 -960
2019-11-14 21:09:02 GMT 26.386185 50.089725 7,450 292 284 -960
2019-11-14 21:08:56 GMT 26.382980 50.098694 7,550 292 284 -960
2019-11-14 21:08:53 GMT 26.381247 50.103573 7,625 292 284 -1024
2019-11-14 21:08:47 GMT 26.378586 50.110924 7,700 292 285 -1024
2019-11-14 21:08:42 GMT 26.376114 50.117764 7,775 292 286 -960
2019-11-14 21:08:37 GMT 26.373751 50.124329 7,850 292 286 -768
2019-11-14 21:08:32 GMT 26.370913 50.132252 7,900 292 285 -128
2019-11-14 21:08:24 GMT 26.367645 50.141396 7,900 292 285 0
2019-11-14 21:08:21 GMT 26.365814 50.146420 7,900 292 285 0
2019-11-14 21:08:16 GMT 26.363462 50.153011 7,900 292 285 0
2019-11-14 21:08:11 GMT 26.360870 50.160206 7,900 292 285 0
2019-11-14 21:08:05 GMT 26.358398 50.167149 7,900 292 284 0
2019-11-14 21:08:01 GMT 26.355515 50.175079 7,900 292 284 0
2019-11-14 21:07:55 GMT 26.353226 50.181454 7,900 292 284 0
2019-11-14 21:07:49 GMT 26.350569 50.188824 7,900 292 284 0
2019-11-14 21:07:44 GMT 26.347775 50.196693 7,900 292 284 0
2019-11-14 21:07:40 GMT 26.345587 50.202820 7,900 292 284 0
2019-11-14 21:07:34 GMT 26.342979 50.210003 7,900 292 284 0
2019-11-14 21:07:29 GMT 26.340513 50.216923 7,900 292 284 0
2019-11-14 21:07:24 GMT 26.338045 50.223736 7,900 292 284 0
2019-11-14 21:07:18 GMT 26.335373 50.231201 7,900 292 285 0
2019-11-14 21:07:13 GMT 26.332993 50.237888 7,900 292 285 0
2019-11-14 21:07:09 GMT 26.330292 50.245403 7,900 292 287 -64
2019-11-14 21:07:03 GMT 26.327774 50.252399 7,900 292 289 -64
2019-11-14 21:06:58 GMT 26.325245 50.259495 7,900 292 292 0
2019-11-14 21:06:52 GMT 26.322590 50.266888 7,900 292 296 64
2019-11-14 21:06:45 GMT 26.318069 50.279449 7,875 292 300 64
2019-11-14 21:06:42 GMT 26.317051 50.282310 7,875 292 305 -64
2019-11-14 21:06:35 GMT 26.313328 50.292610 7,900 292 308 -64
2019-11-14 21:06:31 GMT 26.311464 50.297733 7,900 293 309 0
2019-11-14 21:06:27 GMT 26.309097 50.304272 7,900 292 309 64
2019-11-14 21:06:21 GMT 26.305893 50.313133 7,900 292 309 64
2019-11-14 21:06:17 GMT 26.303644 50.319706 7,875 289 309 0
2019-11-14 21:06:09 GMT 26.300720 50.330494 7,900 283 309 0
2019-11-14 21:06:05 GMT 26.299438 50.336868 7,900 280 308 -64
2019-11-14 21:05:59 GMT 26.298103 50.346432 7,900 279 308 -64
2019-11-14 21:05:55 GMT 26.297314 50.352558 7,900 278 307 -128
2019-11-14 21:05:49 GMT 26.296143 50.362106 7,925 278 307 -320
2019-11-14 21:05:46 GMT 26.295404 50.368088 7,975 278 307 -704
2019-11-14 21:05:37 GMT 26.293808 50.380814 8,075 278 309 -960
2019-11-14 21:05:34 GMT 26.293259 50.385117 8,125 278 309 -1024
2019-11-14 21:05:29 GMT 26.292068 50.394444 8,225 278 310 -1024
2019-11-14 21:05:24 GMT 26.291245 50.400921 8,300 279 311 -1024
2019-11-14 21:05:18 GMT 26.289957 50.411243 8,400 279 312 -1024
2019-11-14 21:05:13 GMT 26.288864 50.419525 8,500 279 312 -960
2019-11-14 21:05:08 GMT 26.287815 50.427616 8,575 279 312 -960
2019-11-14 21:05:02 GMT 26.286652 50.436703 8,675 279 311 -960
2019-11-14 21:04:57 GMT 26.285627 50.444626 8,750 279 311 -960
2019-11-14 21:04:54 GMT 26.284790 50.451118 8,825 279 311 -960
2019-11-14 21:04:43 GMT 26.282742 50.466965 8,975 279 311 -960
2019-11-14 21:04:33 GMT 26.279669 50.491211 9,225 279 312 -960
2019-11-14 21:04:26 GMT 26.279343 50.493580 9,250 279 312 -1024
2019-11-14 21:04:18 GMT 26.277109 50.511070 9,450 278 312 -1024
2019-11-14 21:04:05 GMT 26.275131 50.527058 9,575 278 312 -1024
2019-11-14 21:03:57 GMT 26.272980 50.544106 9,800 279 312 -1024
2019-11-14 21:03:44 GMT 26.270874 50.560791 9,975 279 310 -960
2019-11-14 21:03:33 GMT 26.268682 50.577831 10,100 278 309 -960
2019-11-14 21:03:23 GMT 26.266663 50.593960 10,275 279 310 -896
2019-11-14 21:03:12 GMT 26.264511 50.610592 10,425 278 313 -768
2019-11-14 21:03:05 GMT 26.263004 50.623203 10,525 275 316 -768
2019-11-14 21:03:01 GMT 26.262539 50.628910 10,575 273 317 -896
2019-11-14 21:02:54 GMT 26.263550 50.644588 10,750 255 323 -1024
2019-11-14 21:02:39 GMT 26.270126 50.663296 10,950 236 326 -1088
2019-11-14 21:02:31 GMT 26.277878 50.675060 11,125 225 328 -1152
2019-11-14 21:02:19 GMT 26.290237 50.688274 11,325 223 329 -960
2019-11-14 21:02:13 GMT 26.298294 50.696568 11,425 223 329 -960
2019-11-14 21:02:01 GMT 26.310562 50.709106 11,600 223 330 -960
2019-11-14 21:01:58 GMT 26.313629 50.712215 11,650 223 329 -960
2019-11-14 21:01:52 GMT 26.324732 50.723614 11,800 223 329 -1024
2019-11-14 21:01:41 GMT 26.333359 50.732533 11,950 223 329 -1024
2019-11-14 21:01:38 GMT 26.336380 50.735641 11,975 223 330 -1024
2019-11-14 21:01:28 GMT 26.348101 50.747593 12,150 223 331 -1024
2019-11-14 21:01:21 GMT 26.356947 50.756626 12,300 223 331 -960
2019-11-14 21:01:17 GMT 26.359739 50.759476 12,325 223 330 -960
2019-11-14 21:01:10 GMT 26.368332 50.768288 12,450 223 331 -960
2019-11-14 21:00:59 GMT 26.380554 50.780727 12,625 223 331 -960
2019-11-14 21:00:56 GMT 26.383484 50.783733 12,675 223 331 -960
2019-11-14 21:00:49 GMT 26.395491 50.796028 12,825 223 332 -960
2019-11-14 21:00:39 GMT 26.403763 50.804512 12,950 223 333 -1024
2019-11-14 21:00:35 GMT 26.407288 50.808086 13,000 223 333 -1024
2019-11-14 21:00:29 GMT 26.415369 50.816364 13,125 223 334 -1024
2019-11-14 21:00:25 GMT 26.419052 50.820110 13,175 223 334 -1024
2019-11-14 21:00:18 GMT 26.427612 50.828880 13,300 223 335 -1024
2019-11-14 21:00:14 GMT 26.431137 50.832497 13,350 223 335 -1024
2019-11-14 21:00:07 GMT 26.439331 50.840996 13,475 223 336 -960
2019-11-14 21:00:04 GMT 26.442856 50.844624 13,525 223 336 -960
2019-11-14 20:59:57 GMT 26.451324 50.853382 13,650 223 336 -960
2019-11-14 20:59:53 GMT 26.455217 50.857349 13,700 223 336 -960
2019-11-14 20:59:47 GMT 26.463089 50.865505 13,800 223 336 -960
2019-11-14 20:59:43 GMT 26.466995 50.869499 13,875 223 336 -960
2019-11-14 20:59:37 GMT 26.475128 50.877842 13,975 223 336 -960
2019-11-14 20:59:26 GMT 26.487013 50.890152 14,150 223 337 -960
2019-11-14 20:59:22 GMT 26.490921 50.894165 14,200 223 338 -960
2019-11-14 20:59:15 GMT 26.498978 50.902458 14,300 223 338 -960
2019-11-14 20:59:11 GMT 26.503464 50.907070 14,375 223 338 -960
2019-11-14 20:59:06 GMT 26.510986 50.914818 14,475 223 339 -1024
2019-11-14 20:59:01 GMT 26.515182 50.919090 14,550 223 340 -960
2019-11-14 20:58:55 GMT 26.523090 50.927124 14,650 223 341 -960
2019-11-14 20:58:51 GMT 26.527048 50.931190 14,700 223 341 -896
2019-11-14 20:58:45 GMT 26.535149 50.939430 14,800 224 342 -896
2019-11-14 20:58:40 GMT 26.539764 50.944279 14,850 226 343 -832
2019-11-14 20:58:34 GMT 26.546768 50.952568 14,950 235 342 -960
2019-11-14 20:58:30 GMT 26.550510 50.958286 15,025 239 342 -896
2019-11-14 20:58:24 GMT 26.555008 50.967495 15,125 249 342 -960
2019-11-14 20:58:19 GMT 26.557678 50.974873 15,175 255 342 -960
2019-11-14 20:58:14 GMT 26.560135 50.985527 15,300 264 342 -1024
2019-11-14 20:58:08 GMT 26.560913 50.993977 15,375 270 342 -1088
2019-11-14 20:58:03 GMT 26.560612 51.004238 15,475 278 342 -1024
2019-11-14 20:57:59 GMT 26.559814 51.010921 15,550 279 343 -896
2019-11-14 20:57:53 GMT 26.558472 51.021618 15,625 279 343 -896
2019-11-14 20:57:48 GMT 26.557434 51.029320 15,700 279 344 -896
2019-11-14 20:57:43 GMT 26.556015 51.040409 15,800 279 345 -896
2019-11-14 20:57:37 GMT 26.554934 51.048553 15,850 279 347 -832
2019-11-14 20:57:31 GMT 26.553543 51.059013 15,925 279 349 -704
2019-11-14 20:57:27 GMT 26.552490 51.067043 15,975 279 352 -320
2019-11-14 20:57:22 GMT 26.551069 51.077606 16,000 279 354 -64
2019-11-14 20:57:16 GMT 26.549973 51.085960 16,000 279 357 64
2019-11-14 20:57:11 GMT 26.548553 51.096737 15,975 279 363 64
2019-11-14 20:57:05 GMT 26.547112 51.107712 15,975 279 367 0
2019-11-14 20:57:00 GMT 26.546082 51.115654 15,975 279 372 -64
2019-11-14 20:56:56 GMT 26.544846 51.124825 16,000 279 374 0
2019-11-14 20:56:51 GMT 26.543482 51.135124 16,000 279 374 0
2019-11-14 20:56:44 GMT 26.542007 51.146435 16,000 279 376 0
2019-11-14 20:56:40 GMT 26.540827 51.155251 16,000 279 376 0
2019-11-14 20:56:34 GMT 26.539444 51.165817 16,000 279 376 0
2019-11-14 20:56:29 GMT 26.538219 51.175003 16,000 279 376 0
2019-11-14 20:56:23 GMT 26.536638 51.186886 16,000 279 376 0
2019-11-14 20:56:20 GMT 26.535612 51.194756 16,000 279 376 0
2019-11-14 20:56:13 GMT 26.534180 51.205723 16,000 279 376 0
2019-11-14 20:56:08 GMT 26.532913 51.215305 16,000 279 377 0
2019-11-14 20:56:03 GMT 26.531479 51.226086 16,000 279 376 0
2019-11-14 20:55:59 GMT 26.530243 51.235310 16,000 279 377 0
2019-11-14 20:55:51 GMT 26.528595 51.247955 16,000 279 375 0
2019-11-14 20:55:48 GMT 26.527588 51.255470 16,000 279 375 0
2019-11-14 20:55:37 GMT 26.525024 51.275059 16,000 279 377 0
2019-11-14 20:55:32 GMT 26.523514 51.286201 16,000 279 377 0
2019-11-14 20:55:27 GMT 26.522160 51.296593 16,000 279 376 0
2019-11-14 20:55:22 GMT 26.520996 51.305428 16,000 279 377 0
2019-11-14 20:55:16 GMT 26.519693 51.315235 16,000 279 377 0
2019-11-14 20:55:11 GMT 26.518387 51.325222 16,000 279 377 0
2019-11-14 20:55:07 GMT 26.517086 51.334991 16,000 279 377 0
2019-11-14 20:55:00 GMT 26.515594 51.346161 16,000 279 376 0
2019-11-14 20:54:56 GMT 26.514496 51.354401 16,000 279 376 0
2019-11-14 20:54:50 GMT 26.512850 51.366840 16,000 279 376 0
2019-11-14 20:54:45 GMT 26.511795 51.374920 16,000 279 376 0
2019-11-14 20:54:39 GMT 26.510147 51.387203 16,000 279 376 -64
2019-11-14 20:54:35 GMT 26.508986 51.395840 16,000 279 377 -64
2019-11-14 20:54:29 GMT 26.507675 51.405807 16,000 279 378 0
2019-11-14 20:54:24 GMT 26.506348 51.415653 16,000 279 379 64
2019-11-14 20:54:18 GMT 26.504656 51.428268 16,000 279 382 64
2019-11-14 20:54:15 GMT 26.503784 51.434879 16,000 279 385 0
2019-11-14 20:54:08 GMT 26.502142 51.447285 16,000 279 386 0
2019-11-14 20:54:03 GMT 26.500854 51.456749 16,000 279 385 64
2019-11-14 20:53:57 GMT 26.499298 51.468513 16,000 279 385 64
2019-11-14 20:53:53 GMT 26.498232 51.476387 15,975 279 383 64
2019-11-14 20:53:47 GMT 26.496510 51.489277 15,975 279 380 64
2019-11-14 20:53:44 GMT 26.495625 51.496037 15,975 279 378 -64
2019-11-14 20:53:36 GMT 26.493811 51.509716 16,000 279 372 -128
2019-11-14 20:53:32 GMT 26.492798 51.517326 16,000 279 367 -64
2019-11-14 20:53:26 GMT 26.491425 51.527798 16,025 279 357 -128
2019-11-14 20:53:23 GMT 26.490326 51.535984 16,025 279 351 -128
2019-11-14 20:53:16 GMT 26.488968 51.546478 16,025 279 339 64
2019-11-14 20:53:03 GMT 26.486128 51.567924 16,000 279 333 0
2019-11-14 20:52:54 GMT 26.483917 51.584282 16,000 279 333 -64
2019-11-14 20:52:44 GMT 26.481707 51.600777 16,000 279 334 64
2019-11-14 20:52:32 GMT 26.479568 51.621544 16,000 268 333 0
2019-11-14 20:52:22 GMT 26.481262 51.638592 16,000 255 334 0
2019-11-14 20:52:12 GMT 26.486734 51.654442 16,000 240 335 0
2019-11-14 20:52:03 GMT 26.495178 51.668648 16,025 229 337 -384
2019-11-14 20:51:52 GMT 26.506287 51.682327 16,100 228 336 -640
2019-11-14 20:51:45 GMT 26.513454 51.690990 16,175 228 336 -704
2019-11-14 20:51:36 GMT 26.522625 51.702137 16,275 228 336 -704
2019-11-14 20:51:31 GMT 26.528725 51.709583 16,350 228 336 -640
2019-11-14 20:51:26 GMT 26.533997 51.716015 16,400 228 336 -640
2019-11-14 20:51:20 GMT 26.539337 51.722523 16,450 228 335 -640
2019-11-14 20:51:09 GMT 26.551300 51.737106 16,575 228 335 -640
2019-11-14 20:50:59 GMT 26.561737 51.749908 16,675 228 335 -704
2019-11-14 20:50:49 GMT 26.572250 51.762718 16,800 228 336 -768
2019-11-14 20:50:38 GMT 26.583389 51.776337 16,925 228 337 -768
2019-11-14 20:50:33 GMT 26.589752 51.784058 17,000 228 338 -704
2019-11-14 20:50:28 GMT 26.594055 51.789345 17,050 228 339 -704
2019-11-14 20:50:25 GMT 26.597855 51.794041 17,100 228 339 -704
2019-11-14 20:50:16 GMT 26.608246 51.806705 17,200 228 340 -640
2019-11-14 20:50:07 GMT 26.616241 51.816486 17,275 228 340 -704
2019-11-14 20:50:03 GMT 26.621109 51.822456 17,325 228 340 -768
2019-11-14 20:49:57 GMT 26.631409 51.835102 17,475 228 341 -1088
2019-11-14 20:49:46 GMT 26.638641 51.843964 17,600 228 342 -1152
2019-11-14 20:49:43 GMT 26.642685 51.848972 17,675 228 342 -1024
2019-11-14 20:49:36 GMT 26.649857 51.857750 17,800 228 342 -1024
2019-11-14 20:49:33 GMT 26.652506 51.861015 17,825 228 342 -1024
2019-11-14 20:49:24 GMT 26.663452 51.874386 18,000 228 344 -960
2019-11-14 20:49:14 GMT 26.672895 51.885944 18,150 229 344 -896
2019-11-14 20:49:11 GMT 26.676388 51.890327 18,200 229 345 -896
2019-11-14 20:49:03 GMT 26.685333 51.902626 18,350 239 344 -1024
2019-11-14 20:48:52 GMT 26.692978 51.919106 18,525 252 343 -960
2019-11-14 20:48:44 GMT 26.696358 51.932899 18,675 263 342 -1280
2019-11-14 20:48:31 GMT 26.698687 51.956566 19,000 265 342 -1984
2019-11-14 20:48:21 GMT 26.700129 51.972939 19,300 265 342 -2176
2019-11-14 20:48:11 GMT 26.701675 51.990932 19,625 265 343 -1536
2019-11-14 20:48:00 GMT 26.703415 52.011089 19,850 265 344 -1216
2019-11-14 20:47:49 GMT 26.705017 52.029770 20,000 265 346 -192
2019-11-14 20:47:39 GMT 26.706573 52.047886 20,000 265 346 0
2019-11-14 20:47:29 GMT 26.708038 52.065556 20,000 265 346 0
2019-11-14 20:47:19 GMT 26.709686 52.084625 20,000 265 347 -64
2019-11-14 20:47:08 GMT 26.711254 52.103241 20,000 265 349 0
2019-11-14 20:46:57 GMT 26.712891 52.121941 20,000 265 350 0
2019-11-14 20:46:48 GMT 26.714493 52.140957 20,000 265 355 0
2019-11-14 20:46:36 GMT 26.716143 52.160286 20,000 265 361 64
2019-11-14 20:46:27 GMT 26.717632 52.177715 20,000 265 368 0
2019-11-14 20:46:15 GMT 26.719666 52.200863 20,000 265 369 0
2019-11-14 20:46:05 GMT 26.721176 52.218899 20,000 265 369 64
2019-11-14 20:45:56 GMT 26.722733 52.237762 19,975 265 369 64
2019-11-14 20:45:44 GMT 26.724472 52.258076 20,000 265 368 -64
2019-11-14 20:45:33 GMT 26.726479 52.282299 20,075 265 366 -448
2019-11-14 20:45:25 GMT 26.729324 52.316219 20,175 265 365 -1152
2019-11-14 20:45:14 GMT 26.731039 52.337334 20,725 265 367 -1856
2019-11-14 20:45:04 GMT 26.731039 52.337334 20,775 265 367 -1856
2019-11-14 20:44:53 GMT 26.732529 52.355141 21,075 265 368 -2048
2019-11-14 20:44:42 GMT 26.734253 52.375206 21,425 265 368 -2048
2019-11-14 20:44:32 GMT 26.735834 52.394325 21,775 265 368 -2048
2019-11-14 20:44:21 GMT 26.737556 52.414978 22,150 265 368 -2112
2019-11-14 20:44:10 GMT 26.739349 52.436966 22,550 265 368 -2112
2019-11-14 20:44:00 GMT 26.740906 52.455727 22,900 265 368 -2048
2019-11-14 20:43:47 GMT 26.742865 52.479420 23,325 265 369 -2048
2019-11-14 20:43:40 GMT 26.744064 52.494076 23,600 265 370 -2048
2019-11-14 20:43:29 GMT 26.745705 52.514332 23,950 265 371 -2112
2019-11-14 20:43:19 GMT 26.747288 52.534035 24,325 265 372 -2112
2019-11-14 20:43:07 GMT 26.749008 52.555901 24,725 265 373 -2112
2019-11-14 20:42:57 GMT 26.750610 52.575695 25,075 265 374 -2112
2019-11-14 20:42:47 GMT 26.752220 52.595142 25,425 265 374 -2112
2019-11-14 20:42:37 GMT 26.753860 52.614822 25,800 265 375 -2112
2019-11-14 20:42:27 GMT 26.755526 52.634548 26,150 265 376 -2048
2019-11-14 20:42:16 GMT 26.757250 52.655674 26,525 265 377 -2112
2019-11-14 20:42:06 GMT 26.758804 52.675869 26,875 265 378 -2112
2019-11-14 20:41:55 GMT 26.760406 52.695923 27,250 265 378 -2112
2019-11-14 20:41:44 GMT 26.762276 52.718529 28,775 265 380 -2112
2019-11-14 20:41:31 GMT 26.764252 52.743237 28,100 266 381 -2176
2019-11-14 20:41:24 GMT 26.765394 52.757561 28,375 265 381 -2176
2019-11-14 20:41:12 GMT 26.767164 52.779957 29,025 265 382 -2176
2019-11-14 20:41:03 GMT 26.768702 52.798496 29,125 265 384 -2176
2019-11-14 20:40:52 GMT 26.770424 52.819675 29,825 265 385 -2112
2019-11-14 20:40:42 GMT 26.772053 52.840698 29,875 265 387 -2112
2019-11-14 20:40:31 GMT 26.773682 52.860821 30,250 265 388 -2176
2019-11-14 20:40:20 GMT 26.775421 52.882999 30,975 265 390 -2112
2019-11-14 20:40:10 GMT 26.777069 52.903679 32,050 266 391 -2112
2019-11-14 20:39:58 GMT 26.779036 52.928219 32,050 266 394 -2240
2019-11-14 20:39:48 GMT 26.781549 52.960812 32,050 266 394 -2240
2019-11-14 20:39:39 GMT 26.782015 52.967094 32,100 265 395 -2240
2019-11-14 20:39:28 GMT 26.783783 52.989281 32,575 266 396 -2240
2019-11-14 20:39:18 GMT 26.785355 53.009708 32,950 265 398 -2240
2019-11-14 20:39:06 GMT 26.787275 53.033859 33,400 265 400 -2304
2019-11-14 20:38:56 GMT 26.788952 53.055092 33,775 265 401 -2304
2019-11-14 20:38:45 GMT 26.790720 53.078068 34,200 266 403 -2240
2019-11-14 20:38:35 GMT 26.793045 53.106976 34,625 265 405 -2496
2019-11-14 20:38:31 GMT 26.793045 53.106976 34,725 266 405 -2752
2019-11-14 20:38:24 GMT 26.794119 53.120956 35,175 266 405 -2752
2019-11-14 20:38:19 GMT 26.794876 53.131023 35,250 266 404 -2112
2019-11-14 20:38:14 GMT 26.797348 53.164036 35,525 266 403 -832
2019-11-14 20:38:03 GMT 26.797348 53.164036 35,650 266 404 -896
2019-11-14 20:38:00 GMT 26.798029 53.172562 35,650 266 404 -896
2019-11-14 20:37:52 GMT 26.799099 53.186714 35,750 266 405 -960
2019-11-14 20:37:49 GMT 26.799564 53.192738 35,775 266 406 -1024
2019-11-14 20:37:42 GMT 26.800728 53.208267 35,875 266 407 -832
2019-11-14 20:37:35 GMT 26.802078 53.225857 36,000 266 407 0
2019-11-14 20:37:31 GMT 26.802544 53.231930 36,000 266 407 0
2019-11-14 20:37:26 GMT 26.803196 53.240959 36,000 266 407 0
2019-11-14 20:37:19 GMT 26.804535 53.258610 36,000 266 407 0
2019-11-14 20:37:11 GMT 26.805662 53.273869 36,000 266 407 0
2019-11-14 20:37:07 GMT 26.807419 53.297581 35,975 266 407 0
2019-11-14 20:36:59 GMT 26.807419 53.297581 36,000 266 407 0
2019-11-14 20:36:56 GMT 26.808037 53.305557 36,000 266 407 0
2019-11-14 20:36:50 GMT 26.808968 53.317547 36,000 266 407 0
2019-11-14 20:36:45 GMT 26.809807 53.328217 36,000 266 407 0
2019-11-14 20:36:40 GMT 26.810623 53.339348 36,000 267 406 0
2019-11-14 20:36:36 GMT 26.811016 53.346493 36,000 268 406 64
2019-11-14 20:36:29 GMT 26.811584 53.362202 36,000 269 405 0
2019-11-14 20:36:26 GMT 26.811722 53.368679 36,000 271 404 0
2019-11-14 20:36:19 GMT 26.811714 53.381828 36,000 271 404 0
2019-11-14 20:36:14 GMT 26.811676 53.392258 35,975 271 404 0
2019-11-14 20:36:05 GMT 26.811493 53.412472 36,000 271 403 0
2019-11-14 20:35:55 GMT 26.811296 53.433117 36,000 271 403 -64
2019-11-14 20:35:45 GMT 26.811110 53.453293 36,000 271 403 0
2019-11-14 20:35:40 GMT 26.810989 53.463306 36,000 271 403 0
2019-11-14 20:35:36 GMT 26.810923 53.472046 36,000 271 403 0
2019-11-14 20:35:31 GMT 26.810806 53.481392 36,000 271 403 0
2019-11-14 20:35:26 GMT 26.810669 53.493469 35,975 271 403 0
2019-11-14 20:35:15 GMT 26.810486 53.514713 36,000 271 403 0
2019-11-14 20:35:05 GMT 26.810225 53.535534 36,000 271 403 0
2019-11-14 20:35:00 GMT 26.809982 53.556328 36,000 271 403 0
2019-11-14 20:34:55 GMT 26.809982 53.556328 36,000 271 404 0
2019-11-14 20:34:50 GMT 26.809891 53.567574 36,000 271 403 0
2019-11-14 20:34:41 GMT 26.809668 53.587135 36,000 271 404 0
2019-11-14 20:34:32 GMT 26.809204 53.630901 36,000 271 404 0
2019-11-14 20:34:21 GMT 26.809204 53.630901 35,975 271 404 0
2019-11-14 20:34:12 GMT 26.808792 53.674744 36,000 271 404 -64
2019-11-14 20:33:59 GMT 26.808792 53.674744 36,000 271 404 -64
2019-11-14 20:33:50 GMT 26.808596 53.692509 36,000 271 404 -64
2019-11-14 20:33:46 GMT 26.808472 53.701485 36,000 271 404 0
2019-11-14 20:33:39 GMT 26.808270 53.715908 36,000 271 405 0
2019-11-14 20:33:36 GMT 26.808243 53.721745 36,000 271 405 0
2019-11-14 20:33:26 GMT 26.807943 53.743954 36,000 271 406 0
2019-11-14 20:33:20 GMT 26.807804 53.755470 36,025 271 406 0
2019-11-14 20:33:13 GMT 26.807648 53.770145 36,025 271 406 64
2019-11-14 20:33:09 GMT 26.807510 53.778282 36,000 271 406 0
2019-11-14 20:33:04 GMT 26.807384 53.788799 36,000 271 406 64
2019-11-14 20:32:59 GMT 26.807236 53.799480 36,000 271 407 64
2019-11-14 20:32:49 GMT 26.806967 53.821335 36,000 271 407 -64
2019-11-14 20:32:38 GMT 26.806686 53.843681 36,000 271 407 0
2019-11-14 20:32:35 GMT 26.806595 53.849541 36,000 271 407 0
2019-11-14 20:32:25 GMT 26.806320 53.870579 36,000 271 408 0
2019-11-14 20:32:15 GMT 26.806082 53.891426 36,000 271 408 0
2019-11-14 20:32:00 GMT 26.805662 53.923065 36,000 271 409 0
2019-11-14 20:31:52 GMT 26.805313 53.947796 36,000 271 409 0
2019-11-14 20:31:42 GMT 26.805130 53.964275 36,000 271 410 0
2019-11-14 20:31:31 GMT 26.804825 53.984596 36,000 271 410 0
2019-11-14 20:31:22 GMT 26.804546 54.003452 36,000 271 410 0
2019-11-14 20:31:12 GMT 26.804214 54.025890 36,000 271 411 0
2019-11-14 20:31:07 GMT 26.804077 54.036930 36,000 271 411 0
2019-11-14 20:31:00 GMT 26.803848 54.051804 36,000 271 411 0
2019-11-14 20:30:55 GMT 26.803711 54.062164 36,000 271 411 0
2019-11-14 20:30:48 GMT 26.803345 54.090878 36,000 271 411 -64
2019-11-14 20:30:41 GMT 26.803345 54.090878 36,025 271 411 0
2019-11-14 20:30:33 GMT 26.803070 54.107460 36,025 271 412 0
2019-11-14 20:30:28 GMT 26.802916 54.118282 36,025 271 412 0
2019-11-14 20:30:23 GMT 26.802750 54.129330 36,025 271 412 0
2019-11-14 20:30:18 GMT 26.802591 54.140625 36,025 271 412 0
2019-11-14 20:30:07 GMT 26.802246 54.163582 36,025 271 412 0
2019-11-14 20:29:57 GMT 26.801926 54.185089 36,025 271 412 64
2019-11-14 20:29:54 GMT 26.801800 54.192333 36,025 272 413 0
2019-11-14 20:29:49 GMT 26.801661 54.202316 36,000 272 413 0
2019-11-14 20:29:39 GMT 26.801287 54.222599 36,000 272 413 0
2019-11-14 20:29:36 GMT 26.801193 54.228779 36,000 272 413 0
2019-11-14 20:29:27 GMT 26.800873 54.247742 36,000 271 413 0
2019-11-14 20:29:19 GMT 26.800598 54.265465 36,000 271 413 0
2019-11-14 20:29:16 GMT 26.800543 54.271404 36,000 271 413 0
2019-11-14 20:29:07 GMT 26.800232 54.291271 36,000 271 413 0
2019-11-14 20:28:57 GMT 26.799891 54.313026 36,000 271 413 0
2019-11-14 20:28:49 GMT 26.799610 54.329823 36,025 272 413 0
2019-11-14 20:28:46 GMT 26.799519 54.336266 36,000 271 413 0
2019-11-14 20:28:36 GMT 26.799133 54.357967 36,000 271 413 0
2019-11-14 20:28:21 GMT 26.798447 54.402924 36,000 272 412 0
2019-11-14 20:28:15 GMT 26.798126 54.421658 36,000 271 412 0
2019-11-14 20:28:07 GMT 26.798126 54.421658 36,000 271 412 0
2019-11-14 20:28:04 GMT 26.798075 54.425690 36,000 271 412 0
2019-11-14 20:27:51 GMT 26.797623 54.453995 36,000 272 412 0
2019-11-14 20:27:43 GMT 26.797331 54.469105 36,000 272 412 0
2019-11-14 20:27:38 GMT 26.797165 54.479958 36,000 272 412 0
2019-11-14 20:27:32 GMT 26.796911 54.492664 36,000 272 412 0
2019-11-14 20:27:26 GMT 26.796679 54.506290 36,000 272 411 0
2019-11-14 20:27:19 GMT 26.796446 54.521976 36,000 272 411 0
2019-11-14 20:27:07 GMT 26.796021 54.546860 36,000 272 411 0
2019-11-14 20:26:58 GMT 26.795654 54.568729 36,000 272 411 0
2019-11-14 20:26:47 GMT 26.795242 54.590134 36,000 272 411 0
2019-11-14 20:26:36 GMT 26.794785 54.613297 36,000 272 411 0
2019-11-14 20:26:29 GMT 26.794352 54.635536 36,000 272 411 0
2019-11-14 20:26:15 GMT 26.793884 54.658039 36,000 272 410 0
2019-11-14 20:26:04 GMT 26.793503 54.679420 36,000 272 410 -64
2019-11-14 20:25:58 GMT 26.793228 54.692947 36,000 272 409 0
2019-11-14 20:25:54 GMT 26.793047 54.701405 36,000 272 409 0
2019-11-14 20:25:43 GMT 26.792582 54.724697 36,000 272 409 0
2019-11-14 20:25:39 GMT 26.792442 54.732937 36,000 272 410 0
2019-11-14 20:25:33 GMT 26.792164 54.747303 36,000 272 410 0
2019-11-14 20:25:30 GMT 26.792084 54.752594 36,000 272 410 0
2019-11-14 20:25:22 GMT 26.791718 54.769073 36,000 272 409 64
2019-11-14 20:25:17 GMT 26.791534 54.780113 36,000 272 409 0
2019-11-14 20:25:14 GMT 26.791351 54.788353 35,975 272 409 64
2019-11-14 20:25:09 GMT 26.790907 54.810314 36,000 272 409 64
2019-11-14 20:25:03 GMT 26.790907 54.810314 35,975 272 409 64
2019-11-14 20:24:56 GMT 26.790573 54.824886 35,975 272 410 0
2019-11-14 20:24:53 GMT 26.790440 54.832077 35,975 272 410 0
2019-11-14 20:24:49 GMT 26.790298 54.838463 35,975 272 409 -64
2019-11-14 20:24:46 GMT 26.790161 54.844383 35,975 272 409 -64
2019-11-14 20:24:41 GMT 26.789886 54.854942 35,975 272 409 -64
2019-11-14 20:24:38 GMT 26.789749 54.863182 35,975 272 409 0
2019-11-14 20:24:29 GMT 26.789370 54.880722 36,000 272 409 0
2019-11-14 20:24:21 GMT 26.788998 54.898418 35,975 272 409 -64
2019-11-14 20:24:17 GMT 26.788834 54.907284 35,975 272 409 0
2019-11-14 20:24:10 GMT 26.788513 54.921638 36,000 272 409 -64
2019-11-14 20:24:06 GMT 26.788300 54.931747 36,000 272 409 0
2019-11-14 20:23:58 GMT 26.787964 54.946358 36,000 272 409 -64
2019-11-14 20:23:53 GMT 26.787735 54.957294 36,000 272 409 0
2019-11-14 20:23:50 GMT 26.787321 54.976536 36,000 272 409 0
2019-11-14 20:23:44 GMT 26.787321 54.976536 36,000 272 409 0
2019-11-14 20:23:41 GMT 26.787088 54.985409 36,000 272 409 0
2019-11-14 20:23:38 GMT 26.786997 54.989212 36,000 272 409 0
2019-11-14 20:23:32 GMT 26.786671 55.002735 36,000 272 409 -64
2019-11-14 20:23:26 GMT 26.786362 55.014973 36,000 272 409 -64
2019-11-14 20:23:21 GMT 26.786087 55.027668 36,000 272 410 0
2019-11-14 20:23:17 GMT 26.785904 55.034199 36,025 272 410 0
2019-11-14 20:23:09 GMT 26.785400 55.057259 36,025 272 410 0
2019-11-14 20:23:06 GMT 26.785400 55.057259 36,025 272 410 0
2019-11-14 20:22:59 GMT 26.785040 55.072296 36,025 272 410 0
2019-11-14 20:22:56 GMT 26.784901 55.078476 36,025 272 410 0
2019-11-14 20:22:50 GMT 26.784622 55.089493 36,000 272 411 0
2019-11-14 20:22:45 GMT 26.784389 55.100292 36,025 272 411 0
2019-11-14 20:22:34 GMT 26.783798 55.124886 36,025 272 411 0
2019-11-14 20:22:24 GMT 26.783272 55.146561 36,025 272 411 0
2019-11-14 20:22:19 GMT 26.782991 55.158657 36,025 272 412 0
2019-11-14 20:22:13 GMT 26.782759 55.168217 36,000 272 412 0
2019-11-14 20:22:01 GMT 26.782154 55.193729 36,000 272 412 0
2019-11-14 20:21:56 GMT 26.781830 55.206505 36,000 272 413 64
2019-11-14 20:21:53 GMT 26.781689 55.211636 36,000 272 413 64
2019-11-14 20:21:49 GMT 26.781509 55.219307 36,000 272 413 64
2019-11-14 20:21:45 GMT 26.781326 55.228065 35,975 272 413 64
2019-11-14 20:21:41 GMT 26.781130 55.236355 35,975 272 413 64
2019-11-14 20:21:36 GMT 26.780804 55.251087 35,975 272 414 0
2019-11-14 20:21:32 GMT 26.780685 55.256203 35,975 272 414 0
2019-11-14 20:21:28 GMT 26.780502 55.264133 35,975 272 413 0
2019-11-14 20:21:25 GMT 26.780273 55.272423 35,975 272 413 0
2019-11-14 20:21:22 GMT 26.780151 55.278397 35,975 272 413 0
2019-11-14 20:21:11 GMT 26.779594 55.300369 35,975 272 413 0
2019-11-14 20:21:07 GMT 26.779362 55.309135 35,975 272 413 0
2019-11-14 20:21:04 GMT 26.779221 55.315540 36,000 272 413 0
2019-11-14 20:20:57 GMT 26.778849 55.330212 36,000 272 413 0
2019-11-14 20:20:54 GMT 26.778664 55.336868 35,975 272 413 0
2019-11-14 20:20:47 GMT 26.778259 55.353268 35,975 272 413 0
2019-11-14 20:20:44 GMT 26.778076 55.360313 35,975 272 413 0
2019-11-14 20:20:40 GMT 26.777893 55.367363 35,975 272 413 -64
2019-11-14 20:20:36 GMT 26.777685 55.375477 35,975 272 413 -64
2019-11-14 20:20:29 GMT 26.777252 55.390633 36,000 272 414 -64
2019-11-14 20:20:22 GMT 26.776794 55.409184 36,000 272 414 0
2019-11-14 20:20:17 GMT 26.776611 55.416698 36,000 272 414 -64
2019-11-14 20:20:12 GMT 26.776335 55.426922 36,000 272 414 -64
2019-11-14 20:20:07 GMT 26.776102 55.436749 36,000 272 414 -64
2019-11-14 20:20:04 GMT 26.775696 55.452404 36,025 272 414 -64
2019-11-14 20:19:58 GMT 26.775558 55.457741 36,025 272 414 -64
2019-11-14 20:19:52 GMT 26.775217 55.470974 36,025 272 415 -64
2019-11-14 20:19:47 GMT 26.774984 55.479321 36,025 272 415 -64
2019-11-14 20:19:41 GMT 26.774567 55.496696 36,025 272 415 0
2019-11-14 20:19:32 GMT 26.774139 55.512775 36,025 272 416 0
2019-11-14 20:19:26 GMT 26.773821 55.524372 36,025 272 416 0
2019-11-14 20:19:21 GMT 26.773499 55.536613 36,025 272 417 0
2019-11-14 20:19:18 GMT 26.773264 55.545185 36,025 272 417 0
2019-11-14 20:19:10 GMT 26.772858 55.560921 36,025 272 417 64
2019-11-14 20:18:59 GMT 26.772263 55.583099 36,025 272 418 64
2019-11-14 20:18:54 GMT 26.771988 55.594086 36,025 272 418 0
2019-11-14 20:18:49 GMT 26.771400 55.613743 36,000 272 419 0
2019-11-14 20:18:38 GMT 26.770981 55.628651 36,000 272 419 64
2019-11-14 20:18:29 GMT 26.770294 55.651764 36,000 272 419 128
2019-11-14 20:18:22 GMT 26.769911 55.664555 35,975 272 420 0
2019-11-14 20:18:19 GMT 26.769745 55.670418 35,975 272 420 0
2019-11-14 20:18:09 GMT 26.769119 55.692074 35,975 272 420 0
2019-11-14 20:17:58 GMT 26.768051 55.731052 35,975 272 420 -64
2019-11-14 20:17:47 GMT 26.767771 55.741882 35,975 272 419 0
2019-11-14 20:17:37 GMT 26.767258 55.760262 36,000 272 419 0
2019-11-14 20:17:34 GMT 26.767090 55.766758 35,975 272 419 0
2019-11-14 20:17:25 GMT 26.766403 55.790386 35,975 272 419 0
2019-11-14 20:17:17 GMT 26.765862 55.810074 35,975 272 419 -64
2019-11-14 20:17:04 GMT 26.765076 55.834072 35,975 273 419 0
2019-11-14 20:16:53 GMT 26.764418 55.856182 35,975 272 419 0
2019-11-14 20:16:41 GMT 26.763611 55.884754 36,000 273 420 -64
2019-11-14 20:16:32 GMT 26.762787 55.902119 36,000 275 420 -64
2019-11-14 20:16:22 GMT 26.761112 55.924107 36,025 276 419 -64
2019-11-14 20:16:14 GMT 26.759296 55.940849 36,025 278 419 64
2019-11-14 20:16:09 GMT 26.758163 55.950932 36,000 278 419 64
2019-11-14 20:15:59 GMT 26.755692 55.972595 36,000 278 420 0
2019-11-14 20:15:52 GMT 26.754084 55.986801 36,025 278 420 -64
2019-11-14 20:15:47 GMT 26.752781 55.998001 36,025 278 420 -64
2019-11-14 20:15:41 GMT 26.751104 56.012630 36,025 278 420 0
2019-11-14 20:15:30 GMT 26.748219 56.038250 36,000 278 421 0
2019-11-14 20:15:19 GMT 26.745890 56.058743 36,000 278 421 0
2019-11-14 20:15:10 GMT 26.743376 56.080559 36,025 278 421 0
2019-11-14 20:14:55 GMT 26.739885 56.110558 36,000 277 422 64
2019-11-14 20:14:48 GMT 26.738255 56.127460 36,000 275 422 64
2019-11-14 20:14:17 GMT 26.736393 56.192799 36,000 269 424 0
2019-11-14 20:14:00 GMT 26.738205 56.245335 36,000 268 425 -64
2019-11-14 20:13:53 GMT 26.738708 56.260056 36,000 268 425 -64
2019-11-14 20:13:47 GMT 26.738708 56.260056 36,000 268 425 -64
2019-11-14 20:13:36 GMT 26.739487 56.282181 36,000 268 425 -64
2019-11-14 20:13:24 GMT 26.740442 56.308891 36,025 268 425 0
2019-11-14 20:13:15 GMT 26.741180 56.331932 36,025 268 425 0
2019-11-14 20:13:05 GMT 26.741821 56.351051 36,000 268 426 0
2019-11-14 20:13:01 GMT 26.742167 56.360287 36,025 268 426 0
2019-11-14 20:12:51 GMT 26.743057 56.384010 36,000 268 427 0
2019-11-14 20:12:44 GMT 26.743652 56.405830 36,000 270 427 64
2019-11-14 20:12:33 GMT 26.743652 56.424744 36,000 272 427 64
2019-11-14 20:12:20 GMT 26.742737 56.450916 36,000 274 426 0
2019-11-14 20:12:10 GMT 26.740952 56.474339 36,000 276 426 -64
2019-11-14 20:12:00 GMT 26.738813 56.493549 36,025 279 425 -64
2019-11-14 20:11:48 GMT 26.735043 56.520645 36,025 280 425 0
2019-11-14 20:11:39 GMT 26.732437 56.538857 36,025 280 425 0
2019-11-14 20:11:29 GMT 26.729177 56.561157 36,025 280 425 0
2019-11-14 20:11:19 GMT 26.726120 56.581974 36,025 280 425 0
2019-11-14 20:10:59 GMT 26.719208 56.629494 36,000 280 426 64
2019-11-14 20:10:47 GMT 26.715864 56.652954 35,975 280 426 0
2019-11-14 20:10:38 GMT 26.695267 56.795380 35,975 280 426 0
2019-11-14 20:09:41 GMT 26.695267 56.795380 36,000 280 425 0
2019-11-14 20:09:21 GMT 26.688910 56.839352 36,000 280 425 0
2019-11-14 20:09:14 GMT 26.686432 56.856426 36,000 280 425 -64
2019-11-14 20:09:01 GMT 26.682718 56.881767 36,000 280 425 0
2019-11-14 20:08:41 GMT 26.676361 56.925297 36,000 280 425 0
2019-11-14 20:08:02 GMT 26.664051 57.009586 36,000 280 425 0
2019-11-14 20:07:58 GMT 26.662468 57.020206 36,000 280 425 64
2019-11-14 20:07:49 GMT 26.659630 57.039062 36,000 280 426 64
2019-11-14 20:07:39 GMT 26.656128 57.062469 36,000 280 426 0
2019-11-14 20:07:17 GMT 26.648849 57.110821 35,975 280 426 0
2019-11-14 20:07:07 GMT 26.646034 57.130173 36,000 280 426 0
2019-11-14 20:06:31 GMT 26.634489 57.208927 36,000 280 426 0
2019-11-14 20:06:17 GMT 26.630035 57.238667 36,000 280 426 0
2019-11-14 20:06:13 GMT 26.628799 57.247112 36,000 280 426 -64
2019-11-14 20:06:04 GMT 26.625595 57.268620 36,025 280 426 0
2019-11-14 20:05:52 GMT 26.622061 57.292065 36,000 280 426 0
2019-11-14 20:05:43 GMT 26.618895 57.313141 36,000 280 427 0
2019-11-14 20:05:31 GMT 26.615250 57.337700 36,025 280 427 0
2019-11-14 20:05:22 GMT 26.612005 57.359463 36,000 280 427 0
2019-11-14 20:05:10 GMT 26.608376 57.383598 36,025 280 427 0
2019-11-14 20:05:01 GMT 26.605179 57.405327 36,000 280 427 0
2019-11-14 20:04:38 GMT 26.598087 57.453426 36,000 280 427 0
2019-11-14 20:04:23 GMT 26.593231 57.485443 36,000 280 427 0
2019-11-14 20:04:17 GMT 26.591244 57.498692 36,000 280 427 0
2019-11-14 20:04:06 GMT 26.587189 57.525864 36,000 280 427 0
2019-11-14 20:03:56 GMT 26.584539 57.543957 36,000 280 427 0
2019-11-14 20:03:47 GMT 26.581055 57.567219 36,000 280 428 0
2019-11-14 20:03:33 GMT 26.577091 57.593712 36,000 279 427 0
2019-11-14 20:03:25 GMT 26.574764 57.613834 36,000 277 427 -64
2019-11-14 20:03:14 GMT 26.572948 57.635071 36,000 274 426 0
2019-11-14 20:03:05 GMT 26.571808 57.658840 36,000 272 427 -64
2019-11-14 20:02:33 GMT 26.573414 57.728664 36,025 267 427 64
2019-11-14 20:02:21 GMT 26.574738 57.751965 36,000 267 427 0
2019-11-14 20:02:03 GMT 26.577324 57.795376 36,000 267 427 0
2019-11-14 20:01:59 GMT 26.577698 57.801765 36,000 267 427 0
2019-11-14 20:01:51 GMT 26.578861 57.821838 36,000 267 428 0
2019-11-14 20:01:39 GMT 26.580164 57.844284 36,000 267 427 0
2019-11-14 20:01:29 GMT 26.581604 57.869186 36,000 267 427 0
2019-11-14 19:59:53 GMT 26.593781 58.080673 36,000 267 425 64
2019-11-14 19:59:30 GMT 26.596550 58.130405 36,000 267 425 -64
2019-11-14 19:59:00 GMT 26.600136 58.195423 36,000 267 422 0
2019-11-14 19:58:49 GMT 26.601379 58.217640 35,975 267 422 0
2019-11-14 19:58:40 GMT 26.602570 58.239201 36,000 267 421 -64
2019-11-14 19:58:22 GMT 26.604630 58.275940 36,000 267 421 -64
2019-11-14 19:58:11 GMT 26.606049 58.301956 36,000 267 421 0
2019-11-14 19:58:03 GMT 26.606886 58.316910 36,000 267 421 0
2019-11-14 19:57:44 GMT 26.609116 58.357925 36,000 267 420 0
2019-11-14 19:57:35 GMT 26.610306 58.378963 36,000 267 420 0
2019-11-14 19:57:20 GMT 26.612144 58.412140 36,000 267 420 -64
2019-11-14 19:57:10 GMT 26.613216 58.431843 36,000 267 420 0
2019-11-14 19:57:04 GMT 26.614059 58.446747 36,000 267 420 0
2019-11-14 19:56:37 GMT 26.617310 58.506912 36,000 267 420 -64
2019-11-14 19:56:05 GMT 26.620651 58.572678 36,000 267 419 0
2019-11-14 19:55:59 GMT 26.621317 58.585442 36,000 267 419 0
2019-11-14 19:55:09 GMT 26.627060 58.693577 36,000 267 419 0
2019-11-14 19:55:04 GMT 26.627792 58.706741 36,025 267 419 0
2019-11-14 19:54:57 GMT 26.628485 58.720341 36,000 267 419 0
2019-11-14 19:54:45 GMT 26.629742 58.745007 36,000 267 419 0
2019-11-14 19:54:35 GMT 26.631042 58.769184 36,000 267 419 0
2019-11-14 19:54:25 GMT 26.632141 58.789291 36,000 267 419 0
2019-11-14 19:54:16 GMT 26.633234 58.810448 36,000 267 419 0
2019-11-14 19:54:03 GMT 26.634567 58.836658 36,000 267 419 0
2019-11-14 19:53:55 GMT 26.635515 58.855927 36,000 267 419 0
2019-11-14 19:53:42 GMT 26.636772 58.880962 36,000 267 419 0
2019-11-14 19:52:34 GMT 26.644226 59.031200 36,000 267 418 0
2019-11-14 19:52:29 GMT 26.644592 59.038998 36,000 267 418 0
2019-11-14 19:52:18 GMT 26.645803 59.062710 36,000 267 419 0
2019-11-14 19:47:47 GMT 26.673660 59.648197 36,000 268 417 0
2019-11-14 19:47:43 GMT 26.674118 59.659336 35,975 268 416 0
2019-11-14 19:47:28 GMT 26.675354 59.689186 35,975 268 416 0
2019-11-14 19:47:23 GMT 26.675858 59.700123 35,975 268 416 0
2019-11-14 19:47:11 GMT 26.676992 59.726116 35,975 268 416 0
2019-11-14 19:47:00 GMT 26.677877 59.747719 35,975 268 415 0
2019-11-14 19:46:52 GMT 26.678762 59.768055 35,975 268 415 64
2019-11-14 19:45:47 GMT 26.684673 59.905594 36,000 268 414 0
2019-11-14 19:45:38 GMT 26.685608 59.926998 36,000 268 415 0
2019-11-14 19:44:24 GMT 26.692062 60.083401 36,025 268 417 -64
2019-11-14 19:44:21 GMT 26.692383 60.091381 36,025 268 417 0
2019-11-14 19:44:13 GMT 26.693100 60.108788 36,025 268 417 0
2019-11-14 19:43:23 GMT 26.697430 60.215008 36,000 268 418 64
2019-11-14 19:43:18 GMT 26.697802 60.224464 36,000 268 418 64
2019-11-14 19:43:09 GMT 26.698639 60.245434 36,000 268 419 -64
2019-11-14 19:42:58 GMT 26.699524 60.268936 36,025 268 418 0
2019-11-14 19:42:47 GMT 26.700361 60.291172 36,000 268 418 0
2019-11-14 19:42:34 GMT 26.701492 60.321365 36,025 268 418 0
2019-11-14 19:42:25 GMT 26.702177 60.338394 36,025 268 418 0
2019-11-14 19:42:10 GMT 26.703527 60.373569 36,025 268 418 0
We lost coverage of the aircraft here for a total of 102 minutes
2019-11-14 17:59:48 GMT 28.466309 72.900887 36,025 272 389 0
2019-11-14 17:56:27 GMT 28.455597 73.313194 36,000 272 383 0
2019-11-14 17:56:20 GMT 28.455194 73.327065 36,000 272 383 64
2019-11-14 17:56:14 GMT 28.454962 73.335464 36,000 272 383 64
2019-11-14 17:56:04 GMT 28.454453 73.355392 36,000 272 384 0
2019-11-14 17:55:56 GMT 28.454031 73.371063 36,000 272 383 0
2019-11-14 17:55:53 GMT 28.453892 73.376503 36,000 272 383 0
2019-11-14 17:55:47 GMT 28.453491 73.390732 36,000 272 383 0
2019-11-14 17:55:42 GMT 28.453262 73.398178 36,000 272 383 64
2019-11-14 17:55:33 GMT 28.452667 73.418037 36,000 272 383 0
2019-11-14 17:55:22 GMT 28.451982 73.438919 36,000 273 383 0
2019-11-14 17:55:08 GMT 28.450958 73.472420 36,000 272 383 -64
2019-11-14 17:55:00 GMT 28.450541 73.487442 36,025 272 383 -64
2019-11-14 17:54:48 GMT 28.449747 73.513939 36,000 272 383 0
2019-11-14 17:54:40 GMT 28.449463 73.523781 36,000 272 383 0
2019-11-14 17:54:35 GMT 28.449097 73.537201 36,000 272 383 0
2019-11-14 17:53:59 GMT 28.447083 73.609032 36,000 272 382 64
2019-11-14 17:53:54 GMT 28.446815 73.618416 36,000 272 382 0
2019-11-14 17:53:42 GMT 28.446117 73.641899 36,000 272 382 0
2019-11-14 17:53:31 GMT 28.445297 73.670090 35,975 272 381 64
2019-11-14 17:53:22 GMT 28.445000 73.679649 35,975 272 381 64
2019-11-14 17:52:56 GMT 28.443283 73.736588 36,000 272 380 0
2019-11-14 17:52:43 GMT 28.442440 73.763496 36,000 272 381 -64
2019-11-14 17:52:31 GMT 28.441818 73.784653 36,000 272 381 0
2019-11-14 17:51:58 GMT 28.439926 73.846916 36,000 272 381 -64
2019-11-14 17:51:53 GMT 28.439600 73.858124 36,025 272 381 -64
2019-11-14 17:51:39 GMT 28.438808 73.884460 36,025 273 381 -64
2019-11-14 17:51:31 GMT 28.438065 73.907455 36,025 273 382 -64
2019-11-14 17:51:19 GMT 28.437424 73.927689 36,050 273 382 0
2019-11-14 17:51:09 GMT 28.436808 73.948547 36,025 272 383 0
2019-11-14 17:50:57 GMT 28.436050 73.972427 36,025 272 383 0
2019-11-14 17:50:46 GMT 28.435318 73.997147 36,025 272 384 0
2019-11-14 17:50:40 GMT 28.435131 74.003151 36,025 272 383 0
2019-11-14 17:50:34 GMT 28.434540 74.022026 36,025 273 383 64
2019-11-14 17:50:29 GMT 28.434433 74.025230 36,025 273 384 64
2019-11-14 17:50:21 GMT 28.433828 74.044189 36,000 272 384 0
2019-11-14 17:50:08 GMT 28.433121 74.067291 36,000 272 384 0
2019-11-14 17:50:01 GMT 28.432617 74.084419 36,000 272 384 0
2019-11-14 17:49:53 GMT 28.432245 74.098259 36,000 272 384 0
2019-11-14 17:49:47 GMT 28.431885 74.110336 36,000 272 384 0
2019-11-14 17:49:37 GMT 28.431244 74.130249 36,000 273 383 0
2019-11-14 17:49:23 GMT 28.430054 74.165588 36,000 273 383 -64
2019-11-14 17:49:16 GMT 28.429779 74.173401 36,000 273 383 -64
2019-11-14 17:49:11 GMT 28.429264 74.186852 36,025 273 382 0
2019-11-14 17:48:59 GMT 28.428333 74.210709 36,025 273 382 -64
2019-11-14 17:48:55 GMT 28.428177 74.213913 36,025 273 382 -64
2019-11-14 17:48:45 GMT 28.427031 74.234779 36,025 275 383 64
2019-11-14 17:48:37 GMT 28.425385 74.257805 36,025 275 384 -64
2019-11-14 17:48:23 GMT 28.423819 74.278458 36,025 275 383 64
2019-11-14 17:48:13 GMT 28.422235 74.300323 36,025 275 383 64
2019-11-14 17:48:02 GMT 28.421026 74.328545 36,000 272 381 64
2019-11-14 17:47:52 GMT 28.420898 74.340523 36,000 270 379 64
2019-11-14 17:47:48 GMT 28.421082 74.353195 36,000 269 377 64
2019-11-14 17:47:42 GMT 28.421259 74.360313 35,975 269 377 64
2019-11-14 17:47:31 GMT 28.421864 74.381805 35,975 268 376 64
2019-11-14 17:47:21 GMT 28.422958 74.401421 35,975 265 373 0
2019-11-14 17:47:10 GMT 28.425821 74.429253 35,975 262 369 0
2019-11-14 17:46:58 GMT 28.428520 74.450310 35,975 262 368 0
2019-11-14 17:46:50 GMT 28.429916 74.461617 35,975 262 368 64
2019-11-14 17:46:42 GMT 28.432343 74.480331 35,975 262 367 0
2019-11-14 17:46:39 GMT 28.432526 74.481651 35,975 262 367 0
2019-11-14 17:46:29 GMT 28.435089 74.501671 35,975 262 366 64
2019-11-14 17:46:22 GMT 28.437149 74.517883 35,950 262 366 0
2019-11-14 17:46:17 GMT 28.437973 74.524544 35,950 262 366 0
2019-11-14 17:46:08 GMT 28.440216 74.542236 35,950 262 366 64
2019-11-14 17:45:57 GMT 28.442642 74.561775 35,950 262 365 -64
2019-11-14 17:45:47 GMT 28.445206 74.581535 35,975 262 364 -128
2019-11-14 17:45:33 GMT 28.449600 74.615021 36,000 262 364 0
2019-11-14 17:45:26 GMT 28.450447 74.621452 36,000 262 364 -64
2019-11-14 17:45:20 GMT 28.452587 74.637291 36,000 262 365 -64
2019-11-14 17:45:14 GMT 28.453333 74.642784 36,000 262 365 -64
2019-11-14 17:45:04 GMT 28.456009 74.662819 36,000 262 365 -64
2019-11-14 17:44:54 GMT 28.458527 74.681206 36,000 262 365 -64
2019-11-14 17:44:44 GMT 28.461666 74.703743 36,000 261 365 0
2019-11-14 17:44:32 GMT 28.464752 74.724937 36,025 261 366 -64
2019-11-14 17:44:23 GMT 28.468601 74.747963 36,000 258 365 64
2019-11-14 17:44:12 GMT 28.471115 74.760277 36,000 256 366 -64
2019-11-14 17:44:08 GMT 28.473583 74.770576 36,000 255 365 -64
2019-11-14 17:44:02 GMT 28.475771 74.779091 36,025 254 365 0
2019-11-14 17:43:58 GMT 28.477936 74.787529 36,025 254 365 0
2019-11-14 17:43:49 GMT 28.483639 74.809837 36,000 255 367 0
2019-11-14 17:43:41 GMT 28.485672 74.818001 36,000 255 368 -64
2019-11-14 17:43:36 GMT 28.488667 74.829872 36,000 255 368 -64
2019-11-14 17:43:24 GMT 28.494951 74.854698 36,025 254 367 64
2019-11-14 17:43:11 GMT 28.500212 74.874031 36,000 251 367 -64
2019-11-14 17:43:00 GMT 28.507050 74.895172 36,025 248 367 -128
2019-11-14 17:42:48 GMT 28.514130 74.914368 36,025 247 366 128
2019-11-14 17:42:38 GMT 28.523529 74.939171 36,000 247 368 0
2019-11-14 17:42:26 GMT 28.531586 74.960243 36,025 247 367 0
2019-11-14 17:42:17 GMT 28.535019 74.969276 36,000 248 368 0
2019-11-14 17:42:12 GMT 28.538589 74.979317 36,000 250 368 0
2019-11-14 17:42:08 GMT 28.541061 74.986763 36,000 251 368 64
2019-11-14 17:42:01 GMT 28.545135 75.000282 36,000 253 369 64
2019-11-14 17:41:57 GMT 28.546829 75.006409 36,000 254 369 64
2019-11-14 17:41:52 GMT 28.550583 75.020882 36,000 255 368 0
2019-11-14 17:41:46 GMT 28.551790 75.025742 36,000 255 368 0
2019-11-14 17:41:36 GMT 28.556585 75.044914 35,975 255 368 64
2019-11-14 17:41:25 GMT 28.561615 75.065041 35,975 254 368 -64
2019-11-14 17:41:15 GMT 28.566408 75.084015 36,000 254 368 0
2019-11-14 17:41:04 GMT 28.573345 75.111259 36,000 254 368 64
2019-11-14 17:40:51 GMT 28.578371 75.131134 36,000 254 368 -64
2019-11-14 17:40:43 GMT 28.581491 75.143417 36,000 254 368 -64
2019-11-14 17:40:40 GMT 28.583540 75.151382 36,000 254 368 -64
2019-11-14 17:40:29 GMT 28.590042 75.176857 36,000 254 368 64
2019-11-14 17:40:22 GMT 28.591507 75.182610 36,000 254 368 0
2019-11-14 17:40:17 GMT 28.595179 75.196945 36,000 254 368 0
2019-11-14 17:40:11 GMT 28.596588 75.202522 36,000 254 368 0
2019-11-14 17:40:04 GMT 28.600252 75.216820 36,000 254 368 64
2019-11-14 17:40:01 GMT 28.601461 75.221504 36,000 254 368 64
2019-11-14 17:39:51 GMT 28.606476 75.240822 36,000 254 369 0
2019-11-14 17:39:43 GMT 28.611797 75.261299 36,000 254 369 0
2019-11-14 17:39:30 GMT 28.616360 75.278587 36,000 254 370 64
2019-11-14 17:39:17 GMT 28.623993 75.307884 36,000 254 371 -64
2019-11-14 17:39:10 GMT 28.626322 75.317039 36,000 254 370 64
2019-11-14 17:39:06 GMT 28.629089 75.327652 36,000 254 370 0
2019-11-14 17:38:59 GMT 28.631378 75.336418 36,000 254 370 64
2019-11-14 17:38:53 GMT 28.635351 75.351776 36,000 254 370 64
2019-11-14 17:38:49 GMT 28.636517 75.356247 36,000 254 370 64
2019-11-14 17:38:44 GMT 28.639343 75.367264 36,000 254 370 -64
2019-11-14 17:38:38 GMT 28.641861 75.376984 36,000 254 371 0
2019-11-14 17:38:33 GMT 28.646107 75.393677 36,000 254 371 0
2019-11-14 17:38:28 GMT 28.646664 75.395721 36,000 254 371 0
2019-11-14 17:38:17 GMT 28.651794 75.415962 36,000 254 371 0
2019-11-14 17:38:07 GMT 28.656738 75.435509 36,000 255 371 0
2019-11-14 17:37:56 GMT 28.662277 75.457909 36,000 255 372 64
2019-11-14 17:37:45 GMT 28.668451 75.482971 36,000 255 372 0
2019-11-14 17:37:35 GMT 28.671432 75.495033 36,000 255 372 0
2019-11-14 17:37:31 GMT 28.674454 75.507294 36,000 255 372 0
2019-11-14 17:37:19 GMT 28.679392 75.527237 36,000 255 372 0
2019-11-14 17:37:14 GMT 28.681000 75.533646 36,000 255 371 0
2019-11-14 17:37:09 GMT 28.684250 75.546852 36,000 255 371 0
2019-11-14 17:37:04 GMT 28.685898 75.553452 36,000 255 371 0
2019-11-14 17:36:58 GMT 28.689835 75.569458 36,000 255 372 0
2019-11-14 17:36:53 GMT 28.690748 75.573013 36,000 255 372 0
2019-11-14 17:36:43 GMT 28.695824 75.593742 36,000 255 372 64
2019-11-14 17:36:35 GMT 28.699905 75.610550 36,000 255 372 -64
2019-11-14 17:36:32 GMT 28.700619 75.613564 36,000 255 372 -64
2019-11-14 17:36:22 GMT 28.705366 75.633003 36,025 255 372 -64
2019-11-14 17:36:14 GMT 28.709696 75.650726 36,025 255 372 0
2019-11-14 17:36:11 GMT 28.710159 75.652649 36,025 255 372 0
2019-11-14 17:36:01 GMT 28.715002 75.672646 36,000 255 373 -64
2019-11-14 17:35:51 GMT 28.720217 75.694023 36,025 255 372 0
2019-11-14 17:35:40 GMT 28.726273 75.718727 36,025 255 372 0
2019-11-14 17:35:27 GMT 28.732134 75.742706 36,025 255 372 64
2019-11-14 17:35:15 GMT 28.737627 75.766350 36,000 258 373 0
2019-11-14 17:35:09 GMT 28.738495 75.770592 36,000 258 373 0
2019-11-14 17:34:59 GMT 28.741911 75.790695 36,025 264 375 -64
2019-11-14 17:34:50 GMT 28.743530 75.806984 36,025 265 375 0
2019-11-14 17:34:47 GMT 28.744005 75.812881 36,025 265 376 64
2019-11-14 17:34:40 GMT 28.745401 75.829414 36,025 265 376 0
2019-11-14 17:34:37 GMT 28.745682 75.832756 36,025 265 376 0
2019-11-14 17:34:27 GMT 28.747421 75.853256 36,025 265 375 0
2019-11-14 17:34:16 GMT 28.749220 75.873680 36,000 265 375 64
2019-11-14 17:34:06 GMT 28.751038 75.893768 36,000 265 375 0
2019-11-14 17:33:56 GMT 28.753052 75.915947 36,000 265 374 0
2019-11-14 17:33:44 GMT 28.755457 75.942451 36,000 265 374 0
2019-11-14 17:33:33 GMT 28.757263 75.962433 36,000 265 375 0
2019-11-14 17:33:22 GMT 28.759554 75.987312 36,000 265 374 0
2019-11-14 17:33:08 GMT 28.761429 76.008064 36,000 265 374 0
2019-11-14 17:32:59 GMT 28.763580 76.032204 36,000 265 374 -64
2019-11-14 17:32:52 GMT 28.764130 76.038277 36,000 265 374 0
2019-11-14 17:32:42 GMT 28.766052 76.059456 36,000 265 375 64
2019-11-14 17:32:31 GMT 28.767933 76.080482 35,975 265 375 0
2019-11-14 17:32:21 GMT 28.769897 76.102669 36,000 265 374 0
2019-11-14 17:32:11 GMT 28.771454 76.119934 36,000 265 372 64
2019-11-14 17:32:05 GMT 28.772552 76.132187 36,000 265 370 -256
2019-11-14 17:32:01 GMT 28.773474 76.142311 36,000 265 370 -192
2019-11-14 17:31:56 GMT 28.774155 76.149673 36,025 265 370 -256
2019-11-14 17:31:51 GMT 28.775436 76.163986 36,050 265 367 0
2019-11-14 17:31:37 GMT 28.777430 76.185928 36,025 265 368 0
2019-11-14 17:31:28 GMT 28.779339 76.206985 36,025 265 368 0
2019-11-14 17:31:17 GMT 28.781572 76.231651 36,025 265 368 64
2019-11-14 17:31:04 GMT 28.783630 76.254784 36,025 265 368 0
2019-11-14 17:30:50 GMT 28.785461 76.275650 36,025 265 368 0
2019-11-14 17:30:44 GMT 28.786507 76.287773 36,025 265 368 0
2019-11-14 17:30:41 GMT 28.787155 76.295082 36,025 265 367 0
2019-11-14 17:30:29 GMT 28.789253 76.318787 36,025 265 366 0
2019-11-14 17:30:18 GMT 28.791395 76.342377 36,000 265 366 64
2019-11-14 17:30:06 GMT 28.793518 76.366707 36,000 265 365 0
2019-11-14 17:29:52 GMT 28.795624 76.390846 36,000 265 365 0
2019-11-14 17:29:40 GMT 28.797867 76.416267 36,000 265 364 64
2019-11-14 17:29:27 GMT 28.799913 76.440125 36,000 265 364 64
2019-11-14 17:29:16 GMT 28.801544 76.458977 35,975 265 364 0
2019-11-14 17:29:04 GMT 28.803543 76.482430 35,975 265 363 0
2019-11-14 17:29:01 GMT 28.803684 76.484123 35,975 265 363 0
2019-11-14 17:28:52 GMT 28.805237 76.502243 35,975 265 363 0
2019-11-14 17:28:42 GMT 28.807205 76.524689 35,975 265 362 0
2019-11-14 17:28:30 GMT 28.808853 76.543861 35,975 265 363 0
2019-11-14 17:28:19 GMT 28.811050 76.569000 36,000 265 362 0
2019-11-14 17:28:07 GMT 28.812948 76.590645 35,975 265 362 0
2019-11-14 17:27:57 GMT 28.814529 76.609306 36,000 265 363 0
2019-11-14 17:27:48 GMT 28.815765 76.623726 35,975 265 363 0
2019-11-14 17:27:45 GMT 28.816160 76.628670 35,975 265 363 0
2019-11-14 17:27:36 GMT 28.818024 76.650536 36,000 265 363 0
2019-11-14 17:27:28 GMT 28.818970 76.661385 35,975 265 362 -64
2019-11-14 17:27:25 GMT 28.819746 76.669922 36,000 265 362 -64
2019-11-14 17:27:18 GMT 28.820723 76.681175 36,000 265 362 0
2019-11-14 17:27:12 GMT 28.821991 76.695824 36,000 265 362 0
2019-11-14 17:27:07 GMT 28.822493 76.701485 36,000 265 362 0
2019-11-14 17:27:02 GMT 28.823935 76.718071 36,000 265 363 0
2019-11-14 17:26:49 GMT 28.826340 76.746788 36,000 265 363 -64
2019-11-14 17:26:34 GMT 28.828125 76.767235 36,025 265 364 0
2019-11-14 17:26:22 GMT 28.830219 76.791847 36,000 265 365 0
2019-11-14 17:26:10 GMT 28.832382 76.817993 36,000 265 367 0
2019-11-14 17:26:04 GMT 28.832642 76.821037 36,000 265 367 0
2019-11-14 17:25:58 GMT 28.833851 76.835312 36,000 265 368 0
2019-11-14 17:25:47 GMT 28.835861 76.858871 36,000 265 368 0
2019-11-14 17:25:44 GMT 28.836039 76.861000 36,000 265 368 0
2019-11-14 17:25:36 GMT 28.837576 76.879311 36,000 265 369 0
2019-11-14 17:25:24 GMT 28.839340 76.899857 36,000 265 368 0
2019-11-14 17:25:11 GMT 28.841347 76.923363 36,000 265 367 0
2019-11-14 17:25:04 GMT 28.843048 76.943489 36,000 265 364 0
2019-11-14 17:24:50 GMT 28.845200 76.968048 36,025 265 361 0
2019-11-14 17:24:41 GMT 28.846390 76.982048 36,000 265 360 0
2019-11-14 17:24:37 GMT 28.847164 76.991165 36,000 265 360 0
2019-11-14 17:24:28 GMT 28.849028 77.013458 36,000 265 361 -64
2019-11-14 17:24:21 GMT 28.849445 77.018738 36,000 265 362 0
2019-11-14 17:24:14 GMT 28.850693 77.033966 36,000 265 363 0
2019-11-14 17:24:10 GMT 28.851122 77.039635 36,000 265 363 64
2019-11-14 17:24:03 GMT 28.852566 77.057190 36,000 265 365 64
2019-11-14 17:23:50 GMT 28.854172 77.077492 36,000 265 368 -64
2019-11-14 17:23:39 GMT 28.856323 77.103424 36,025 265 368 -128
2019-11-14 17:23:26 GMT 28.858475 77.129730 36,000 265 370 -192
2019-11-14 17:23:19 GMT 28.859207 77.138916 36,025 265 374 -128
2019-11-14 17:23:08 GMT 28.860809 77.159149 36,000 265 378 64
2019-11-14 17:23:03 GMT 28.861967 77.173248 35,975 265 383 -192
2019-11-14 17:22:57 GMT 28.862640 77.181702 36,025 265 385 -320
2019-11-14 17:22:51 GMT 28.864111 77.199257 36,050 265 384 -64
2019-11-14 17:22:40 GMT 28.865831 77.220047 36,075 265 386 -128
2019-11-14 17:22:37 GMT 28.866018 77.222305 36,050 265 386 -64
2019-11-14 17:22:27 GMT 28.867676 77.242973 36,050 265 387 -64
2019-11-14 17:22:16 GMT 28.870022 77.272018 36,050 265 388 0
2019-11-14 17:22:06 GMT 28.871140 77.285805 36,050 265 388 0
2019-11-14 17:22:02 GMT 28.872025 77.297058 36,050 265 388 0
2019-11-14 17:21:51 GMT 28.873764 77.318237 36,050 265 389 0
2019-11-14 17:21:40 GMT 28.875595 77.341690 36,050 265 389 64
2019-11-14 17:21:29 GMT 28.877657 77.367233 36,050 265 389 64
2019-11-14 17:21:16 GMT 28.879473 77.389900 36,025 265 389 64
2019-11-14 17:21:06 GMT 28.881180 77.410774 36,000 265 389 128
2019-11-14 17:21:00 GMT 28.881958 77.420128 36,000 265 389 128
2019-11-14 17:20:55 GMT 28.883194 77.435234 36,000 265 388 64
2019-11-14 17:20:43 GMT 28.885338 77.462341 36,000 265 387 0
2019-11-14 17:20:30 GMT 28.887085 77.484299 36,000 265 386 0
2019-11-14 17:20:18 GMT 28.889154 77.510429 36,000 265 385 -64
2019-11-14 17:20:06 GMT 28.890877 77.532082 36,000 265 384 -64
2019-11-14 17:20:01 GMT 28.891434 77.538918 36,000 265 384 0
2019-11-14 17:19:56 GMT 28.892853 77.556664 36,000 265 383 0
2019-11-14 17:19:49 GMT 28.893345 77.563103 36,000 265 383 0
2019-11-14 17:19:39 GMT 28.895021 77.583832 36,000 265 383 0
2019-11-14 17:19:30 GMT 28.896650 77.604515 36,000 265 382 0
2019-11-14 17:19:19 GMT 28.898745 77.631172 36,000 265 382 0
2019-11-14 17:19:07 GMT 28.900606 77.654594 36,025 265 381 0
2019-11-14 17:18:53 GMT 28.902422 77.678024 36,000 265 381 0
2019-11-14 17:18:47 GMT 28.903214 77.687828 36,000 265 380 0
2019-11-14 17:18:43 GMT 28.904205 77.700806 36,000 265 380 64
2019-11-14 17:18:32 GMT 28.905821 77.721161 36,000 265 380 64
2019-11-14 17:18:21 GMT 28.907776 77.746284 36,000 265 379 0
2019-11-14 17:18:08 GMT 28.909470 77.767990 36,000 266 379 0
2019-11-14 17:17:59 GMT 28.910849 77.786324 36,000 266 379 0
2019-11-14 17:17:48 GMT 28.912857 77.813148 35,975 265 378 0
2019-11-14 17:17:34 GMT 28.914759 77.837593 35,975 265 377 0
2019-11-14 17:17:22 GMT 28.916840 77.863907 35,975 265 376 0
2019-11-14 17:17:10 GMT 28.918343 77.883698 35,975 265 376 0
2019-11-14 17:16:58 GMT 28.919998 77.905006 35,975 265 376 0
2019-11-14 17:16:49 GMT 28.921875 77.929512 35,975 265 376 0
2019-11-14 17:16:36 GMT 28.923883 77.955917 35,975 266 375 64
2019-11-14 17:16:22 GMT 28.925467 77.976753 35,950 266 375 64
2019-11-14 17:16:12 GMT 28.927095 77.998192 35,950 266 374 0
2019-11-14 17:16:02 GMT 28.928925 78.022369 35,950 266 374 0
2019-11-14 17:15:48 GMT 28.930435 78.042381 35,950 266 373 0
2019-11-14 17:15:39 GMT 28.932587 78.070801 35,950 266 373 0
2019-11-14 17:15:22 GMT 28.934555 78.096260 35,975 266 373 -64
2019-11-14 17:15:11 GMT 28.936020 78.116066 35,975 266 373 -64
2019-11-14 17:15:01 GMT 28.937523 78.136055 35,975 266 373 0
2019-11-14 17:14:51 GMT 28.938950 78.155205 35,975 266 373 0
2019-11-14 17:14:40 GMT 28.940687 78.178978 36,000 266 374 0
2019-11-14 17:14:30 GMT 28.942457 78.202568 36,000 266 375 0
2019-11-14 17:14:16 GMT 28.944260 78.227623 36,000 266 377 0
2019-11-14 17:14:04 GMT 28.945902 78.250389 36,000 266 378 0
2019-11-14 17:13:54 GMT 28.947235 78.268875 36,000 266 378 0
2019-11-14 17:13:42 GMT 28.948881 78.290726 36,000 265 378 -64
2019-11-14 17:13:31 GMT 28.950897 78.317047 36,000 266 376 0
2019-11-14 17:13:20 GMT 28.952791 78.342155 36,000 266 375 64
2019-11-14 17:13:07 GMT 28.954376 78.363838 36,000 266 375 0
2019-11-14 17:12:55 GMT 28.956116 78.387238 36,000 266 374 0
2019-11-14 17:12:43 GMT 28.958099 78.414917 36,000 266 372 0
2019-11-14 17:12:30 GMT 28.959686 78.437363 36,000 266 370 0
2019-11-14 17:12:19 GMT 28.961451 78.461395 36,000 266 366 0
2019-11-14 17:12:05 GMT 28.963165 78.485374 36,000 266 362 0
2019-11-14 17:11:53 GMT 28.964756 78.507759 36,000 266 359 0
2019-11-14 17:11:41 GMT 28.966572 78.532913 36,000 266 356 0
2019-11-14 17:11:27 GMT 28.968294 78.557037 36,000 266 355 64
2019-11-14 17:11:15 GMT 28.969736 78.577339 36,000 266 355 0
2019-11-14 17:11:03 GMT 28.971552 78.602760 36,000 266 356 0
2019-11-14 17:10:53 GMT 28.972763 78.619781 36,000 266 356 0
2019-11-14 17:10:42 GMT 28.974392 78.643425 36,025 266 359 -64
2019-11-14 17:10:29 GMT 28.976120 78.667870 36,000 266 363 64
2019-11-14 17:10:15 GMT 28.978226 78.697495 35,975 266 371 -128
2019-11-14 17:10:01 GMT 28.979965 78.721268 36,000 266 372 0
2019-11-14 17:09:48 GMT 28.981607 78.744560 36,000 266 373 0
2019-11-14 17:09:36 GMT 28.983398 78.769859 36,000 266 374 0
2019-11-14 17:09:24 GMT 28.985046 78.793205 36,000 266 373 64
2019-11-14 17:09:12 GMT 28.986465 78.813805 36,000 266 373 0
2019-11-14 17:09:01 GMT 28.988251 78.839638 36,000 266 370 0
2019-11-14 17:08:47 GMT 28.989986 78.864655 36,000 266 366 -64
2019-11-14 17:08:35 GMT 28.991711 78.889000 36,025 266 363 0
2019-11-14 17:08:22 GMT 28.993107 78.909782 36,000 266 362 0
2019-11-14 17:08:12 GMT 28.994736 78.932999 36,000 266 362 0
2019-11-14 17:07:59 GMT 28.996458 78.957771 36,025 266 363 0
2019-11-14 17:07:45 GMT 28.998276 78.983879 36,000 266 363 0
2019-11-14 17:07:33 GMT 28.999577 79.002899 36,000 266 363 0
2019-11-14 17:07:23 GMT 29.001251 79.027458 36,000 266 362 64
2019-11-14 17:07:10 GMT 29.002695 79.048569 36,000 266 362 0
2019-11-14 17:06:58 GMT 29.004272 79.071404 36,000 266 362 -64
2019-11-14 17:06:45 GMT 29.005692 79.092476 36,025 266 361 0
2019-11-14 17:06:36 GMT 29.007339 79.116989 36,000 266 362 64
2019-11-14 17:06:23 GMT 29.008896 79.140862 35,975 266 364 64
2019-11-14 17:06:09 GMT 29.010544 79.165367 36,000 266 364 0
2019-11-14 17:05:58 GMT 29.012146 79.188347 36,000 266 363 0
2019-11-14 17:05:45 GMT 29.013885 79.214066 36,000 266 362 0
2019-11-14 17:05:32 GMT 29.015451 79.238190 36,000 266 362 -64
2019-11-14 17:05:18 GMT 29.017080 79.262909 36,025 266 363 -128
2019-11-14 17:05:06 GMT 29.018476 79.283806 36,025 266 365 0
2019-11-14 17:04:56 GMT 29.019875 79.305992 35,975 266 370 256
2019-11-14 17:04:43 GMT 29.021549 79.331902 35,975 266 375 -64
2019-11-14 17:04:31 GMT 29.023132 79.355919 35,975 266 374 -64
2019-11-14 17:04:18 GMT 29.024826 79.382294 35,975 266 373 -64
2019-11-14 17:04:04 GMT 29.026428 79.407280 35,975 266 374 -64
2019-11-14 17:03:49 GMT 29.028345 79.436485 36,000 267 372 0
2019-11-14 17:03:40 GMT 29.029129 79.457352 36,000 270 375 -64
2019-11-14 17:03:26 GMT 29.029037 79.479744 36,000 273 377 -64
2019-11-14 17:03:15 GMT 29.027788 79.504608 36,000 276 379 128
2019-11-14 17:03:01 GMT 29.025375 79.530350 35,975 277 381 64
2019-11-14 17:02:52 GMT 29.023224 79.552376 36,000 277 382 0
2019-11-14 17:02:40 GMT 29.020664 79.578178 36,000 277 381 0
2019-11-14 17:02:26 GMT 29.017548 79.610153 36,000 277 382 -64
2019-11-14 17:02:10 GMT 29.015579 79.629593 36,000 277 382 -64
2019-11-14 17:02:00 GMT 29.013519 79.650612 36,025 277 382 0
2019-11-14 17:01:48 GMT 29.010656 79.679474 36,025 277 382 0
2019-11-14 17:01:36 GMT 29.008301 79.702744 36,025 277 383 -64
2019-11-14 17:01:25 GMT 29.005907 79.727028 36,050 277 383 0
2019-11-14 17:01:12 GMT 29.003311 79.752975 36,025 277 384 64
2019-11-14 17:00:59 GMT 29.000788 79.778351 36,000 277 385 0
2019-11-14 17:00:44 GMT 28.998230 79.803635 36,000 277 385 0
2019-11-14 17:00:36 GMT 28.996445 79.821381 36,000 277 385 0
2019-11-14 17:00:25 GMT 28.993698 79.848366 36,000 277 385 0
2019-11-14 17:00:12 GMT 28.991615 79.868935 36,000 277 384 0
2019-11-14 17:00:00 GMT 28.989429 79.890259 36,000 277 384 0
2019-11-14 16:59:49 GMT 28.986969 79.914391 36,000 277 383 0
2019-11-14 16:59:40 GMT 28.984541 79.938301 36,000 277 383 0
2019-11-14 16:59:27 GMT 28.981934 79.963989 36,000 277 383 -64
2019-11-14 16:58:59 GMT 28.976580 80.015739 36,000 277 382 0
2019-11-14 16:58:51 GMT 28.974485 80.035561 36,000 277 383 0
2019-11-14 16:58:37 GMT 28.971645 80.062653 36,000 277 383 0
2019-11-14 16:58:24 GMT 28.968992 80.088715 36,000 277 383 64
2019-11-14 16:58:11 GMT 28.966324 80.116158 35,975 278 384 64
2019-11-14 16:57:59 GMT 28.964245 80.132820 35,975 280 385 0
2019-11-14 16:57:48 GMT 28.958633 80.165230 35,975 284 388 0
2019-11-14 16:57:32 GMT 28.953072 80.189583 35,975 286 389 0
2019-11-14 16:57:22 GMT 28.946974 80.214523 36,000 286 389 -64
2019-11-14 16:57:10 GMT 28.942738 80.231697 36,000 286 389 -64
2019-11-14 16:56:59 GMT 28.936798 80.255814 36,000 286 389 -64
2019-11-14 16:56:33 GMT 28.924162 80.306938 36,025 286 389 -128
2019-11-14 16:56:21 GMT 28.918945 80.327911 36,050 286 390 -64
2019-11-14 16:56:09 GMT 28.912432 80.354218 36,050 286 390 0
2019-11-14 16:56:03 GMT 28.908522 80.369888 36,050 286 391 -64
2019-11-14 16:55:51 GMT 28.903259 80.390892 36,050 286 392 64
2019-11-14 16:55:37 GMT 28.896561 80.417969 36,025 286 392 128
2019-11-14 16:55:27 GMT 28.891296 80.439255 36,025 286 392 128
2019-11-14 16:55:16 GMT 28.885529 80.462547 36,000 286 393 0
2019-11-14 16:55:02 GMT 28.878754 80.489853 36,000 286 392 0
2019-11-14 16:54:48 GMT 28.872303 80.515892 36,000 286 391 0
2019-11-14 16:54:39 GMT 28.868439 80.531349 36,000 286 391 0
2019-11-14 16:54:16 GMT 28.855824 80.581863 35,975 286 390 0
2019-11-14 16:53:09 GMT 28.822952 80.712753 36,000 286 387 0
2019-11-14 16:53:03 GMT 28.821030 80.720406 36,000 286 387 0
2019-11-14 16:52:56 GMT 28.816628 80.738045 36,000 286 387 0
2019-11-14 16:52:44 GMT 28.810482 80.762383 36,000 287 388 0
2019-11-14 16:52:29 GMT 28.802765 80.792984 35,975 287 388 0
2019-11-14 16:52:16 GMT 28.796934 80.816345 36,000 286 387 0
2019-11-14 16:52:04 GMT 28.791676 80.837349 36,000 286 387 0
2019-11-14 16:51:54 GMT 28.787018 80.855728 36,000 287 388 -64
2019-11-14 16:51:39 GMT 28.778091 80.891228 36,025 287 388 -64
2019-11-14 16:51:29 GMT 28.774683 80.904778 36,025 287 388 -64
2019-11-14 16:51:21 GMT 28.770262 80.922173 36,025 287 388 64
2019-11-14 16:51:10 GMT 28.763718 80.947899 36,025 287 388 0
2019-11-14 16:50:58 GMT 28.758270 80.969292 36,000 287 389 0
2019-11-14 16:50:45 GMT 28.751358 80.996651 36,025 286 389 0
2019-11-14 16:50:33 GMT 28.745819 81.018463 36,025 287 389 0
2019-11-14 16:50:20 GMT 28.739862 81.041885 36,025 287 389 0
2019-11-14 16:50:07 GMT 28.732224 81.071762 36,025 287 390 64
2019-11-14 16:49:58 GMT 28.728365 81.086967 36,000 287 390 0
2019-11-14 16:48:52 GMT 28.693449 81.223862 35,975 287 387 0
2019-11-14 16:48:40 GMT 28.689400 81.239914 35,975 287 387 0
2019-11-14 16:47:42 GMT 28.661545 81.348953 35,975 287 385 -64
2019-11-14 16:47:35 GMT 28.658020 81.362579 36,000 287 385 -64
2019-11-14 16:47:26 GMT 28.653397 81.380646 36,000 287 385 0
2019-11-14 16:47:15 GMT 28.648270 81.400665 36,000 287 385 0
2019-11-14 16:47:07 GMT 28.644197 81.416389 36,000 287 384 0
2019-11-14 16:46:57 GMT 28.639206 81.435783 36,000 287 384 0

Making use of Plane Finder data

You are free to use the raw flight data, aircraft information and images provided in this report for your own purposes provided the data is correctly attributed to Plane Finder. We ask that you please credit Plane Finder and link to planefinder.net in close proximity to the content.

Optionally one of the following logos (no smaller then 150x24px) can be used and must link to planefinder.net

Embedding the Plane Finder map

You are welcome to embed the Plane Finder playback map on your website to offer visitors a more interactive experience. We suggest using the following HTML code:

<iframe src="//planefinder.net/data/report/H9559-9N-ALW-7700-squawk-2019-11-14/map" width="800" height="600" seamless="seamless"></iframe>

Where our data comes from

Plane Finder has a global network of data feeds and antenna radars that receive data broadcast directly from aircraft. The primary technologies used are ADS-B and MLAT. We also show feeds from the FAA and a FLARM glider feed.

Click here to find out more about the Plane Finder network.

How we collect our data